Hoberg, Missouri
Current Conditions -  °F | °C
As of 5:55 AM on Sunday 21 Dec 2014 (Local Time) from KHFJ Reporting Station
Haze Haze  
Wind Chill: 34°   Ceiling: 1800
Heat Index: 39°   Visibility: 5mi
Dew Point: 37°   Wind: 7mph
Humidity: 93%   Direction: 150°SSE
Pressure: 30.09"   Gusts: NA
Location:  37.1099°N, 93.7778°W
Report Text: KHFJ 211155Z AUTO 15006KT 5SM BR OVC018 04/03 A3009 RMK AO2
Loading
Personal Weather Stations






























Interactive Weather Map New forecast layout! Learn more

10-Day Weather Forecast

Advertisements
Track Severe Weather on mobile